createdAt,value
2022-08-14T00:02:03.941Z,26.19
2022-08-14T00:04:35.660Z,26.15
2022-08-14T00:07:11.521Z,26.32
2022-08-14T00:10:01.843Z,26.29
2022-08-14T00:12:39.433Z,26.24
2022-08-14T00:15:37.700Z,26.33
2022-08-14T00:18:14.434Z,26.22
2022-08-14T00:20:43.222Z,26.24
2022-08-14T00:23:16.847Z,26.09
2022-08-14T00:25:53.758Z,26.00
2022-08-14T00:28:35.297Z,26.15
2022-08-14T00:31:03.765Z,26.31
2022-08-14T00:33:50.902Z,26.28
2022-08-14T00:36:48.134Z,26.33
2022-08-14T00:39:09.265Z,26.28
2022-08-14T00:41:38.826Z,26.17
2022-08-14T00:44:06.744Z,26.04
2022-08-14T00:46:33.741Z,26.13
2022-08-14T00:49:00.878Z,26.00
2022-08-14T00:51:34.678Z,25.72
2022-08-14T00:54:21.001Z,25.71
2022-08-14T00:57:12.447Z,25.63
2022-08-14T00:59:39.531Z,25.69
2022-08-14T01:02:09.533Z,25.66
2022-08-14T01:04:53.367Z,25.76
2022-08-14T01:07:23.123Z,25.74
2022-08-14T01:09:57.002Z,25.80
2022-08-14T01:12:27.358Z,26.04
2022-08-14T01:15:02.220Z,25.83
2022-08-14T01:17:52.253Z,25.82
2022-08-14T01:20:40.980Z,25.64
2022-08-14T01:23:16.855Z,25.73
2022-08-14T01:25:51.271Z,25.63
2022-08-14T01:28:47.046Z,25.55
2022-08-14T01:31:16.170Z,25.57
2022-08-14T01:33:59.647Z,25.53
2022-08-14T01:36:37.036Z,25.49
2022-08-14T01:39:13.653Z,25.39
2022-08-14T01:41:43.977Z,25.38
2022-08-14T01:44:32.620Z,25.28
2022-08-14T01:47:05.921Z,25.22
2022-08-14T01:49:35.495Z,25.25
2022-08-14T01:52:03.617Z,25.15
2022-08-14T01:54:37.996Z,25.05
2022-08-14T01:57:11.425Z,25.13
2022-08-14T01:59:41.098Z,25.31
2022-08-14T02:02:17.561Z,25.13
2022-08-14T02:04:56.237Z,25.13
2022-08-14T02:07:34.368Z,25.03
2022-08-14T02:10:15.870Z,24.99
2022-08-14T02:12:54.227Z,24.88
2022-08-14T02:15:25.744Z,24.83
2022-08-14T02:17:53.129Z,24.84
2022-08-14T02:20:23.690Z,24.93
2022-08-14T02:22:54.709Z,24.83
2022-08-14T02:25:22.447Z,24.93
2022-08-14T02:28:25.073Z,24.90
2022-08-14T02:30:43.110Z,24.87
2022-08-14T02:33:10.668Z,24.83
2022-08-14T02:35:41.310Z,24.76
2022-08-14T02:38:11.789Z,24.83
2022-08-14T02:40:48.773Z,24.82
2022-08-14T02:43:17.338Z,24.82
2022-08-14T02:45:49.777Z,24.74
2022-08-14T02:49:03.722Z,24.70
2022-08-14T02:51:07.130Z,24.62
2022-08-14T02:53:38.263Z,24.51
2022-08-14T02:56:30.097Z,24.58
2022-08-14T02:59:01.271Z,24.59
2022-08-14T03:01:31.280Z,24.21
2022-08-14T03:04:13.452Z,24.27
2022-08-14T03:06:57.856Z,24.31
2022-08-14T03:09:42.066Z,24.28
2022-08-14T03:12:26.982Z,24.29
2022-08-14T03:15:03.075Z,24.18
2022-08-14T03:17:32.007Z,24.27
2022-08-14T03:20:11.337Z,24.31
2022-08-14T03:22:39.879Z,24.29
2022-08-14T03:25:10.772Z,24.29
2022-08-14T03:27:48.569Z,24.25
2022-08-14T03:30:39.514Z,24.16
2022-08-14T03:33:13.427Z,24.28
2022-08-14T03:36:05.587Z,24.07
2022-08-14T03:39:10.505Z,24.06
2022-08-14T03:41:23.591Z,24.08
2022-08-14T03:43:57.765Z,24.11
2022-08-14T03:46:38.739Z,24.06
2022-08-14T03:49:24.403Z,23.99
2022-08-14T03:51:55.790Z,23.98
2022-08-14T03:54:24.497Z,24.05
2022-08-14T03:56:51.338Z,24.08
2022-08-14T03:59:19.669Z,24.03
2022-08-14T04:01:58.185Z,24.01
2022-08-14T04:04:32.416Z,23.94
2022-08-14T04:07:01.131Z,23.97
2022-08-14T04:09:29.190Z,23.94
2022-08-14T04:11:57.916Z,23.88
2022-08-14T04:14:25.111Z,23.83
2022-08-14T04:16:51.829Z,23.68
2022-08-14T04:19:23.798Z,23.72
2022-08-14T04:22:02.060Z,23.77
2022-08-14T04:24:38.352Z,23.77
2022-08-14T04:27:11.439Z,23.71
2022-08-14T04:29:40.141Z,23.64
2022-08-14T04:33:00.794Z,23.60
2022-08-14T04:34:57.489Z,23.61
2022-08-14T04:37:43.307Z,23.58
2022-08-14T04:40:32.196Z,23.48
2022-08-14T04:43:18.005Z,23.51
2022-08-14T04:45:45.500Z,23.56
2022-08-14T04:48:39.859Z,23.56
2022-08-14T04:51:16.499Z,23.50
2022-08-14T04:53:45.980Z,23.49
2022-08-14T04:56:31.252Z,23.48
2022-08-14T04:59:09.746Z,23.57
2022-08-14T05:01:47.882Z,23.57
2022-08-14T05:04:20.802Z,23.61
2022-08-14T05:06:53.721Z,23.61
2022-08-14T05:09:23.715Z,23.67
2022-08-14T05:11:51.628Z,23.59
2022-08-14T05:14:46.817Z,23.64
2022-08-14T05:17:11.016Z,23.49
2022-08-14T05:19:45.019Z,23.64
2022-08-14T05:22:27.089Z,23.68
2022-08-14T05:24:54.040Z,23.77
2022-08-14T05:27:23.042Z,23.75
2022-08-14T05:29:53.600Z,23.78
2022-08-14T05:32:22.925Z,23.86
2022-08-14T05:34:57.437Z,23.96
2022-08-14T05:37:24.463Z,23.99
2022-08-14T05:39:54.242Z,24.09
2022-08-14T05:42:29.314Z,24.11
2022-08-14T05:44:59.685Z,24.02
2022-08-14T05:47:33.713Z,24.04
2022-08-14T05:50:17.655Z,24.06
2022-08-14T05:52:50.178Z,24.20
2022-08-14T05:55:22.959Z,24.30
2022-08-14T05:57:52.999Z,24.30
2022-08-14T06:00:24.441Z,24.33
2022-08-14T06:03:00.440Z,24.36
2022-08-14T06:05:29.027Z,24.44
2022-08-14T06:07:58.500Z,24.47
2022-08-14T06:10:28.365Z,24.52
2022-08-14T06:12:57.375Z,24.37
2022-08-14T06:15:30.100Z,24.42
2022-08-14T06:17:59.597Z,24.47
2022-08-14T06:20:28.144Z,24.52
2022-08-14T06:22:56.250Z,24.52
2022-08-14T06:25:24.887Z,24.69
2022-08-14T06:27:52.165Z,24.71
2022-08-14T06:30:22.151Z,24.85
2022-08-14T06:32:52.581Z,24.98
2022-08-14T06:35:23.369Z,25.08
2022-08-14T06:37:55.579Z,25.05
2022-08-14T06:40:34.214Z,25.00
2022-08-14T06:43:07.210Z,24.93
2022-08-14T06:45:37.277Z,25.03
2022-08-14T06:48:32.725Z,25.10
2022-08-14T06:51:02.515Z,25.38
2022-08-14T06:53:30.231Z,25.52
2022-08-14T06:56:01.023Z,25.48
2022-08-14T06:58:30.751Z,25.64
2022-08-14T07:01:25.151Z,25.85
2022-08-14T07:04:24.091Z,25.93
2022-08-14T07:06:55.594Z,25.98
2022-08-14T07:09:27.895Z,26.18
2022-08-14T07:11:54.999Z,26.22
2022-08-14T07:14:23.040Z,26.30
2022-08-14T07:16:49.739Z,26.38
2022-08-14T07:19:20.781Z,26.52
2022-08-14T07:21:48.199Z,26.55
2022-08-14T07:24:26.248Z,26.39
2022-08-14T07:26:57.850Z,26.62
2022-08-14T07:29:28.993Z,27.00
2022-08-14T07:31:56.220Z,26.91
2022-08-14T07:34:36.600Z,27.02
2022-08-14T07:37:07.767Z,26.97
2022-08-14T07:39:36.709Z,27.17
2022-08-14T07:42:06.165Z,27.33
2022-08-14T07:44:45.813Z,26.91
2022-08-14T07:47:15.766Z,26.68
2022-08-14T07:50:01.776Z,26.79
2022-08-14T07:52:31.969Z,26.93
2022-08-14T07:55:00.359Z,27.05
2022-08-14T07:57:28.157Z,27.25
2022-08-14T07:59:54.868Z,27.42
2022-08-14T08:02:22.181Z,27.35
2022-08-14T08:04:54.560Z,27.59
2022-08-14T08:07:29.460Z,27.67
2022-08-14T08:09:57.961Z,27.87
2022-08-14T08:12:28.130Z,27.86
2022-08-14T08:15:05.833Z,27.89
2022-08-14T08:17:42.793Z,27.91
2022-08-14T08:20:27.251Z,28.10
2022-08-14T08:23:00.379Z,28.26
2022-08-14T08:25:30.499Z,28.44
2022-08-14T08:28:08.064Z,28.48
2022-08-14T08:30:37.738Z,28.51
2022-08-14T08:33:16.656Z,28.61
2022-08-14T08:35:50.358Z,28.60
2022-08-14T08:39:15.149Z,28.59
2022-08-14T08:41:09.619Z,28.75
2022-08-14T08:43:38.913Z,28.77
2022-08-14T08:46:21.041Z,28.54
2022-08-14T08:48:54.012Z,28.70
2022-08-14T08:51:51.061Z,28.94
2022-08-14T08:54:26.684Z,28.92
2022-08-14T08:56:58.393Z,28.77
2022-08-14T08:59:34.330Z,28.86
2022-08-14T09:02:06.724Z,28.53
2022-08-14T09:04:45.264Z,28.47
2022-08-14T09:07:26.202Z,28.75
2022-08-14T09:09:59.243Z,28.97
2022-08-14T09:12:36.076Z,28.93
2022-08-14T09:15:11.433Z,29.01
2022-08-14T09:17:43.294Z,29.15
2022-08-14T09:20:14.037Z,29.31
2022-08-14T09:22:54.628Z,29.34
2022-08-14T09:25:59.005Z,29.35
2022-08-14T09:28:10.297Z,29.44
2022-08-14T09:30:40.695Z,29.64
2022-08-14T09:33:23.297Z,29.81
2022-08-14T09:36:09.076Z,29.67
2022-08-14T09:38:54.760Z,29.55
2022-08-14T09:42:21.564Z,29.51
2022-08-14T09:45:16.597Z,29.75
2022-08-14T09:47:51.749Z,29.75
2022-08-14T09:50:31.274Z,29.87
2022-08-14T09:53:04.841Z,29.92
2022-08-14T09:55:42.630Z,29.75
2022-08-14T09:58:19.407Z,29.72
2022-08-14T10:00:49.358Z,29.74
2022-08-14T10:03:34.338Z,29.84
2022-08-14T10:06:13.621Z,30.00
2022-08-14T10:09:12.051Z,30.00
2022-08-14T10:11:58.983Z,29.79
2022-08-14T10:14:35.645Z,29.74
2022-08-14T10:17:06.542Z,29.90
2022-08-14T10:19:46.859Z,29.72
2022-08-14T10:23:12.296Z,29.82
2022-08-14T10:25:15.968Z,29.90
2022-08-14T10:27:46.377Z,30.09
2022-08-14T10:30:22.779Z,30.16
2022-08-14T10:32:54.455Z,30.17
2022-08-14T10:35:30.897Z,30.14
2022-08-14T10:38:00.644Z,30.19
2022-08-14T10:40:37.731Z,30.35
2022-08-14T10:43:18.447Z,30.25
2022-08-14T10:46:03.961Z,30.09
2022-08-14T10:48:45.863Z,30.22
2022-08-14T10:51:16.661Z,30.23
2022-08-14T10:53:56.838Z,30.18
2022-08-14T10:56:35.115Z,30.27
2022-08-14T10:59:07.125Z,30.29
2022-08-14T11:01:40.949Z,30.31
2022-08-14T11:04:25.320Z,30.30
2022-08-14T11:06:56.267Z,30.30
2022-08-14T11:09:23.340Z,30.40
2022-08-14T11:12:33.770Z,30.32
2022-08-14T11:14:51.143Z,30.42
2022-08-14T11:17:28.542Z,30.37
2022-08-14T11:20:01.725Z,30.32
2022-08-14T11:22:55.590Z,30.28
2022-08-14T11:25:23.521Z,30.38
2022-08-14T11:27:52.496Z,30.46
2022-08-14T11:30:50.526Z,30.43
2022-08-14T11:33:09.322Z,30.38
2022-08-14T11:35:44.292Z,30.37
2022-08-14T11:38:17.046Z,30.38
2022-08-14T11:40:46.722Z,30.62
2022-08-14T11:43:16.201Z,30.64
2022-08-14T11:45:47.925Z,30.51
2022-08-14T11:49:02.432Z,30.48
2022-08-14T11:51:13.377Z,30.55
2022-08-14T11:53:42.131Z,30.71
2022-08-14T11:56:11.099Z,30.92
2022-08-14T11:58:38.525Z,30.78
2022-08-14T12:01:09.565Z,30.63
2022-08-14T12:03:57.164Z,30.59
2022-08-14T12:06:29.687Z,30.51
2022-08-14T12:09:08.754Z,30.55
2022-08-14T12:11:43.811Z,30.42
2022-08-14T12:14:30.066Z,30.58
2022-08-14T12:17:05.130Z,30.56
2022-08-14T12:19:33.461Z,30.54
2022-08-14T12:22:02.802Z,30.54
2022-08-14T12:24:36.049Z,30.55
2022-08-14T12:27:06.619Z,30.51
2022-08-14T12:29:34.865Z,30.44
2022-08-14T12:32:08.893Z,30.41
2022-08-14T12:34:40.715Z,30.56
2022-08-14T12:37:12.012Z,30.59
2022-08-14T12:39:39.614Z,30.63
2022-08-14T12:42:07.693Z,30.46
2022-08-14T12:44:39.547Z,30.51
2022-08-14T12:47:17.550Z,30.53
2022-08-14T12:49:52.963Z,30.49
2022-08-14T12:52:47.326Z,30.69
2022-08-14T12:55:32.337Z,30.83
2022-08-14T12:58:02.335Z,30.80
2022-08-14T13:01:14.246Z,30.68
2022-08-14T13:03:37.525Z,30.79
2022-08-14T13:06:04.448Z,30.71
2022-08-14T13:08:33.702Z,30.77
2022-08-14T13:11:02.642Z,30.86
2022-08-14T13:13:34.315Z,31.22
2022-08-14T13:16:05.158Z,31.34
2022-08-14T13:18:58.333Z,31.23
2022-08-14T13:21:26.293Z,31.23
2022-08-14T13:23:54.638Z,31.28
2022-08-14T13:26:28.143Z,31.27
2022-08-14T13:29:02.754Z,31.36
2022-08-14T13:31:34.142Z,31.57
2022-08-14T13:34:01.320Z,31.52
2022-08-14T13:36:51.527Z,31.61
2022-08-14T13:39:19.832Z,31.68
2022-08-14T13:41:48.069Z,31.73
2022-08-14T13:44:26.679Z,31.79
2022-08-14T13:46:53.330Z,31.76
2022-08-14T13:49:19.936Z,31.76
2022-08-14T13:51:53.302Z,32.00
2022-08-14T13:54:21.106Z,31.97
2022-08-14T13:56:49.096Z,32.07
2022-08-14T13:59:20.496Z,32.25
2022-08-14T14:02:06.846Z,32.36
2022-08-14T14:04:40.790Z,32.49
2022-08-14T14:07:13.056Z,32.64
2022-08-14T14:09:52.686Z,32.61
2022-08-14T14:12:37.814Z,32.75
2022-08-14T14:15:09.701Z,32.90
2022-08-14T14:17:38.997Z,33.10
2022-08-14T14:20:11.354Z,33.08
2022-08-14T14:23:01.802Z,33.25
2022-08-14T14:25:45.835Z,33.43
2022-08-14T14:28:17.203Z,33.63
2022-08-14T14:30:56.984Z,33.91
2022-08-14T14:33:45.208Z,33.86
2022-08-14T14:36:14.983Z,33.85
2022-08-14T14:38:52.603Z,33.70
2022-08-14T14:41:20.957Z,34.18
2022-08-14T14:43:51.810Z,34.39
2022-08-14T14:46:21.091Z,34.63
2022-08-14T14:48:54.715Z,35.06
2022-08-14T14:51:22.066Z,35.74
2022-08-14T14:53:48.985Z,36.54
2022-08-14T14:56:50.194Z,36.78
2022-08-14T14:59:04.622Z,37.14
2022-08-14T15:01:35.454Z,37.83
2022-08-14T15:04:08.041Z,37.64
2022-08-14T15:06:48.223Z,37.61
2022-08-14T15:09:17.628Z,37.20
2022-08-14T15:11:47.143Z,36.33
2022-08-14T15:14:56.683Z,35.92
2022-08-14T15:17:01.947Z,35.36
2022-08-14T15:19:28.853Z,34.77
2022-08-14T15:21:55.833Z,34.62
2022-08-14T15:24:26.668Z,34.55
2022-08-14T15:26:56.168Z,34.61
2022-08-14T15:29:22.943Z,34.87
2022-08-14T15:31:53.355Z,35.07
2022-08-14T15:34:43.850Z,35.05
2022-08-14T15:37:12.904Z,34.65
2022-08-14T15:39:41.969Z,34.13
2022-08-14T15:42:14.775Z,33.69
2022-08-14T15:44:58.400Z,33.37
2022-08-14T15:47:34.881Z,33.19
2022-08-14T15:50:08.638Z,33.10
2022-08-14T15:52:37.657Z,33.03
2022-08-14T15:55:10.425Z,32.81
2022-08-14T15:58:02.144Z,32.83
2022-08-14T16:00:49.715Z,32.78
2022-08-14T16:03:27.934Z,32.78
2022-08-14T16:06:11.194Z,32.56
2022-08-14T16:08:44.153Z,32.52
2022-08-14T16:11:11.679Z,32.40
2022-08-14T16:13:43.131Z,32.54
2022-08-14T16:16:34.736Z,32.34
2022-08-14T16:19:00.829Z,32.51
2022-08-14T16:21:29.470Z,32.52
2022-08-14T16:23:59.921Z,32.48
2022-08-14T16:26:29.984Z,32.43
2022-08-14T16:29:07.553Z,32.40
2022-08-14T16:31:38.358Z,32.41
2022-08-14T16:34:44.255Z,32.32
2022-08-14T16:36:53.850Z,32.25
2022-08-14T16:39:22.600Z,32.23
2022-08-14T16:41:53.582Z,32.28
2022-08-14T16:44:33.533Z,31.95
2022-08-14T16:47:04.219Z,31.69
2022-08-14T16:50:03.177Z,32.14
2022-08-14T16:52:26.412Z,32.17
2022-08-14T16:55:09.337Z,32.21
2022-08-14T16:57:54.637Z,32.09
2022-08-14T17:00:43.727Z,32.06
2022-08-14T17:03:13.086Z,32.07
2022-08-14T17:05:43.788Z,31.94
2022-08-14T17:08:33.074Z,31.99
2022-08-14T17:11:11.177Z,31.96
2022-08-14T17:13:58.828Z,32.04
2022-08-14T17:16:29.603Z,32.03
2022-08-14T17:19:00.655Z,32.02
2022-08-14T17:21:41.596Z,31.68
2022-08-14T17:24:56.838Z,31.96
2022-08-14T17:27:04.173Z,31.97
2022-08-14T17:29:33.981Z,31.83
2022-08-14T17:32:22.084Z,31.65
2022-08-14T17:34:57.662Z,31.70
2022-08-14T17:37:55.582Z,31.76
2022-08-14T17:40:30.671Z,31.79
2022-08-14T17:43:01.642Z,31.56
2022-08-14T17:45:38.962Z,31.35
2022-08-14T17:49:14.856Z,31.47
2022-08-14T17:51:14.121Z,31.44
2022-08-14T17:53:53.637Z,31.41
2022-08-14T17:56:28.965Z,31.34
2022-08-14T17:59:04.961Z,31.40
2022-08-14T18:01:36.166Z,31.40
2022-08-14T18:04:20.952Z,31.17
2022-08-14T18:06:58.436Z,31.28
2022-08-14T18:09:36.224Z,31.31
2022-08-14T18:12:04.116Z,31.26
2022-08-14T18:14:32.180Z,31.10
2022-08-14T18:17:02.198Z,31.08
2022-08-14T18:19:30.407Z,31.24
2022-08-14T18:21:59.947Z,31.19
2022-08-14T18:24:31.862Z,30.99
2022-08-14T18:27:10.387Z,30.81
2022-08-14T18:29:55.005Z,30.96
2022-08-14T18:32:31.580Z,30.79
2022-08-14T18:35:11.231Z,30.77
2022-08-14T18:37:41.609Z,30.75
2022-08-14T18:40:22.493Z,30.68
2022-08-14T18:43:03.477Z,30.78
2022-08-14T18:45:43.007Z,30.67
2022-08-14T18:48:19.757Z,30.49
2022-08-14T18:50:57.956Z,30.57
2022-08-14T18:53:34.232Z,30.58
2022-08-14T18:56:09.702Z,30.40
2022-08-14T18:58:57.164Z,30.33
2022-08-14T19:01:37.153Z,30.27
2022-08-14T19:04:04.235Z,30.22
2022-08-14T19:06:42.872Z,30.34
2022-08-14T19:09:53.517Z,30.67
2022-08-14T19:12:57.640Z,30.47
2022-08-14T19:15:28.649Z,30.35
2022-08-14T19:18:14.107Z,30.25
2022-08-14T19:20:49.011Z,30.18
2022-08-14T19:23:23.081Z,30.24
2022-08-14T19:26:36.510Z,30.17
2022-08-14T19:29:23.506Z,30.13
2022-08-14T19:31:55.340Z,30.10
2022-08-14T19:34:52.251Z,30.07
2022-08-14T19:37:52.630Z,30.09
2022-08-14T19:40:46.761Z,30.07
2022-08-14T19:43:55.467Z,30.41
2022-08-14T19:46:38.724Z,30.24
2022-08-14T19:49:02.256Z,29.96
2022-08-14T19:51:32.839Z,29.77
2022-08-14T19:54:13.615Z,29.70
2022-08-14T19:56:45.408Z,29.64
2022-08-14T19:59:19.044Z,29.64
2022-08-14T20:01:51.134Z,29.57
2022-08-14T20:04:47.575Z,29.52
2022-08-14T20:07:28.305Z,29.55
2022-08-14T20:11:04.939Z,29.63
2022-08-14T20:13:12.359Z,29.54
2022-08-14T20:15:47.202Z,29.47
2022-08-14T20:18:38.985Z,29.66
2022-08-14T20:21:05.118Z,29.45
2022-08-14T20:23:38.119Z,29.35
2022-08-14T20:26:31.220Z,29.39
2022-08-14T20:29:07.327Z,29.38
2022-08-14T20:31:36.629Z,29.57
2022-08-14T20:34:06.211Z,29.38
2022-08-14T20:36:37.909Z,29.35
2022-08-14T20:39:15.324Z,29.29
2022-08-14T20:41:51.329Z,29.22
2022-08-14T20:44:41.073Z,29.28
2022-08-14T20:47:14.703Z,29.23
2022-08-14T20:49:41.651Z,29.24
2022-08-14T20:52:18.845Z,29.49
2022-08-14T20:54:50.984Z,29.26
2022-08-14T20:57:19.269Z,29.29
2022-08-14T20:59:52.010Z,29.18
2022-08-14T21:02:34.215Z,29.14
2022-08-14T21:05:17.081Z,29.17
2022-08-14T21:07:50.874Z,29.40
2022-08-14T21:10:33.303Z,29.17
2022-08-14T21:14:09.260Z,29.35
2022-08-14T21:15:56.901Z,29.20
2022-08-14T21:18:28.593Z,29.50
2022-08-14T21:20:55.799Z,29.46
2022-08-14T21:23:23.255Z,29.44
2022-08-14T21:25:50.253Z,29.21
2022-08-14T21:28:29.195Z,28.89
2022-08-14T21:30:58.160Z,28.72
2022-08-14T21:33:24.978Z,28.67
2022-08-14T21:35:55.558Z,28.63
2022-08-14T21:38:33.948Z,28.68
2022-08-14T21:41:42.630Z,28.48
2022-08-14T21:44:17.634Z,28.27
2022-08-14T21:46:55.568Z,28.26
2022-08-14T21:49:25.561Z,28.49
2022-08-14T21:52:51.987Z,28.63
2022-08-14T21:54:55.560Z,28.57
2022-08-14T21:57:55.905Z,28.46
2022-08-14T22:00:30.451Z,28.53
2022-08-14T22:03:05.408Z,28.36
2022-08-14T22:05:32.897Z,28.53
2022-08-14T22:08:02.641Z,28.53
2022-08-14T22:10:29.886Z,28.50
2022-08-14T22:13:01.414Z,28.38
2022-08-14T22:15:29.725Z,28.32
2022-08-14T22:17:58.250Z,28.19
2022-08-14T22:20:28.711Z,28.15
2022-08-14T22:22:57.655Z,28.17
2022-08-14T22:25:33.195Z,28.17
2022-08-14T22:28:05.572Z,28.17
2022-08-14T22:30:33.200Z,28.21
2022-08-14T22:33:00.541Z,28.09
2022-08-14T22:35:29.170Z,28.13
2022-08-14T22:38:34.660Z,28.15
2022-08-14T22:41:12.493Z,28.04
2022-08-14T22:43:34.939Z,27.96
2022-08-14T22:46:06.228Z,27.95
2022-08-14T22:48:43.029Z,27.96
2022-08-14T22:51:09.941Z,28.02
2022-08-14T22:53:40.410Z,28.22
2022-08-14T22:56:20.819Z,28.33
2022-08-14T22:58:53.976Z,28.14
2022-08-14T23:01:57.249Z,27.82
2022-08-14T23:04:35.968Z,27.67
2022-08-14T23:07:21.611Z,27.67
2022-08-14T23:10:32.146Z,27.80
2022-08-14T23:12:54.795Z,27.83
2022-08-14T23:15:24.250Z,27.86
2022-08-14T23:17:55.674Z,27.91
2022-08-14T23:20:23.196Z,27.65
2022-08-14T23:22:56.532Z,27.52
2022-08-14T23:25:56.773Z,27.33
2022-08-14T23:28:34.736Z,27.18
2022-08-14T23:31:12.890Z,27.22
2022-08-14T23:33:45.917Z,26.92
2022-08-14T23:36:31.867Z,26.91
2022-08-14T23:39:10.415Z,26.88
2022-08-14T23:41:46.464Z,26.86
2022-08-14T23:44:22.487Z,26.86
2022-08-14T23:46:56.936Z,26.75
2022-08-14T23:49:28.632Z,26.76
2022-08-14T23:52:50.578Z,26.70
2022-08-14T23:55:02.527Z,26.75
2022-08-14T23:57:30.738Z,26.69
2022-08-14T23:59:57.578Z,26.67
